Time;durP1;ratioP1;P1;durP2;ratioP2;P2;SDS_P1;SDS_P2;PMS_P1;PMS_P2;Temp;Humidity;BMP_temperature;BMP_pressure;BME280_temperature;BME280_humidity;BME280_pressure;Samples;Min_cycle;Max_cycle;Signal;HPM_P1;HPM_P2
2023/12/08 00:00:13;;;;;;;5.05;3.85;;;;;;;-4.89;100.00;97978.69;1225790;75;2921847;-63
2023/12/08 00:02:48;;;;;;;4.65;3.60;;;;;;;-4.95;100.00;97970.25;1224682;75;2917153;-64
2023/12/08 00:05:21;;;;;;;6.40;4.60;;;;;;;-5.07;100.00;97969.72;1225085;75;2921062;-64
2023/12/08 00:07:54;;;;;;;5.10;4.20;;;;;;;-4.96;100.00;97960.69;1225260;75;2922261;-64
2023/12/08 00:10:26;;;;;;;5.25;4.00;;;;;;;-5.02;100.00;97962.16;1225660;75;2911520;-64
2023/12/08 00:12:57;;;;;;;5.25;3.85;;;;;;;-5.15;100.00;97958.97;1226171;75;2924467;-63
2023/12/08 00:15:29;;;;;;;5.35;4.15;;;;;;;-5.04;100.00;97951.06;1225141;75;2915268;-65
2023/12/08 00:18:05;;;;;;;4.25;3.05;;;;;;;-5.07;100.00;97959.81;1225337;75;2929088;-64
2023/12/08 00:20:38;;;;;;;4.55;3.45;;;;;;;-5.04;100.00;97961.75;1225766;75;2914838;-64
2023/12/08 00:23:10;;;;;;;4.90;3.80;;;;;;;-5.16;100.00;97970.75;1225508;75;2922833;-64
2023/12/08 00:25:43;;;;;;;4.85;3.60;;;;;;;-5.22;100.00;97974.91;1225073;75;2923636;-63
2023/12/08 00:28:16;;;;;;;4.50;3.85;;;;;;;-5.22;100.00;97966.09;1225671;75;2917083;-64
2023/12/08 00:30:49;;;;;;;5.25;4.35;;;;;;;-5.28;100.00;97954.97;1225840;75;2917988;-62
2023/12/08 00:33:24;;;;;;;5.40;4.30;;;;;;;-5.18;100.00;97957.00;1225045;75;2919021;-65
2023/12/08 00:35:57;;;;;;;5.05;3.95;;;;;;;-5.21;100.00;97959.63;1225607;75;2926065;-69
2023/12/08 00:38:30;;;;;;;5.20;3.65;;;;;;;-5.24;100.00;97955.81;1225572;75;2922130;-67
2023/12/08 00:41:04;;;;;;;5.20;3.90;;;;;;;-5.24;100.00;97941.69;1225337;75;2917919;-65
2023/12/08 00:43:36;;;;;;;4.55;3.70;;;;;;;-5.32;100.00;97946.16;1225340;75;2919834;-66
2023/12/08 00:46:09;;;;;;;5.20;3.65;;;;;;;-5.32;100.00;97948.06;1225108;75;2920228;-62
2023/12/08 00:48:44;;;;;;;4.55;3.50;;;;;;;-5.37;100.00;97935.81;1224734;75;2939086;-64
2023/12/08 00:51:17;;;;;;;5.70;3.55;;;;;;;-5.40;100.00;97941.88;1224512;75;2915561;-64
2023/12/08 00:53:50;;;;;;;4.85;3.75;;;;;;;-5.38;100.00;97936.94;1225551;75;2927878;-65
2023/12/08 00:56:23;;;;;;;5.60;3.95;;;;;;;-5.37;100.00;97935.81;1224450;75;2921742;-63
2023/12/08 00:58:56;;;;;;;4.35;3.35;;;;;;;-5.45;100.00;97932.28;1225681;75;2919237;-67
2023/12/08 01:01:29;;;;;;;5.20;3.80;;;;;;;-5.58;100.00;97922.97;1225785;75;2928009;-63
2023/12/08 01:04:04;;;;;;;8.30;5.85;;;;;;;-5.71;100.00;97929.66;1223931;75;2921989;-63
2023/12/08 01:06:37;;;;;;;10.95;7.80;;;;;;;-5.83;100.00;97925.31;1224100;75;2922698;-65
2023/12/08 01:09:10;;;;;;;12.90;7.80;;;;;;;-5.78;100.00;97925.75;1225649;75;2931453;-65
2023/12/08 01:11:43;;;;;;;12.90;7.55;;;;;;;-5.78;100.00;97920.41;1224863;75;2927328;-62
2023/12/08 01:14:15;;;;;;;11.00;7.25;;;;;;;-5.61;100.00;97921.78;1224743;75;2925648;-66
2023/12/08 01:16:48;;;;;;;12.30;8.30;;;;;;;-5.86;100.00;97912.72;1225383;75;2921839;-64
2023/12/08 01:19:24;;;;;;;13.40;8.60;;;;;;;-5.81;100.00;97909.72;1225043;75;2919332;-66
2023/12/08 01:21:57;;;;;;;12.40;7.85;;;;;;;-5.80;100.00;97908.59;1225044;75;2924806;-66
2023/12/08 01:24:30;;;;;;;11.75;8.70;;;;;;;-5.94;100.00;97906.53;1224623;75;2920524;-65
2023/12/08 01:27:03;;;;;;;14.50;11.40;;;;;;;-5.80;100.00;97908.59;1224898;75;2921538;-64
2023/12/08 01:29:35;;;;;;;16.00;12.85;;;;;;;-5.80;100.00;97905.91;1225021;75;2933145;-65
2023/12/08 01:32:09;;;;;;;16.90;14.15;;;;;;;-5.92;100.00;97908.81;1224537;75;2924632;-63
2023/12/08 01:34:45;;;;;;;22.30;16.65;;;;;;;-6.03;100.00;97909.47;1224134;75;2920429;-63
2023/12/08 01:37:17;;;;;;;22.25;17.45;;;;;;;-6.11;100.00;97901.72;1225174;75;2915379;-66
2023/12/08 01:39:50;;;;;;;21.25;16.85;;;;;;;-6.10;100.00;97905.94;1225454;75;2918608;-63
2023/12/08 01:42:23;;;;;;;22.05;17.60;;;;;;;-6.14;100.00;97905.84;1225159;75;2923584;-64
2023/12/08 01:44:56;;;;;;;17.10;14.20;;;;;;;-5.84;100.00;97905.13;1225261;75;2933104;-65
2023/12/08 01:47:29;;;;;;;15.15;12.35;;;;;;;-5.79;100.00;97902.91;1225569;75;2918763;-65
2023/12/08 01:50:06;;;;;;;12.70;10.80;;;;;;;-5.81;100.00;97912.38;1224689;75;2919436;-64
2023/12/08 01:52:40;;;;;;;12.30;9.35;;;;;;;-5.82;100.00;97900.97;1223445;75;2931416;-65
2023/12/08 01:55:14;;;;;;;12.00;9.15;;;;;;;-5.92;100.00;97906.91;1224762;75;2926488;-63
2023/12/08 01:57:47;;;;;;;12.35;8.60;;;;;;;-5.89;100.00;97906.19;1224673;75;2917292;-65
2023/12/08 02:00:21;;;;;;;11.85;9.45;;;;;;;-6.01;100.00;97901.09;1225050;75;2917670;-65
2023/12/08 02:02:54;;;;;;;11.40;8.70;;;;;;;-5.93;100.00;97897.38;1224529;75;2922567;-64
2023/12/08 02:05:31;;;;;;;13.15;8.60;;;;;;;-6.07;100.00;97903.28;1224558;75;2922032;-63
2023/12/08 02:08:04;;;;;;;10.45;8.30;;;;;;;-5.98;100.00;97894.28;1224715;75;2923548;-67
2023/12/08 02:10:37;;;;;;;11.70;8.85;;;;;;;-6.03;100.00;97901.47;1225758;75;2914945;-65
2023/12/08 02:13:11;;;;;;;11.00;8.00;;;;;;;-6.04;100.00;97897.28;1224994;75;2924965;-63
2023/12/08 02:15:44;;;;;;;9.45;7.20;;;;;;;-6.03;100.00;97898.78;1225035;75;2926406;-64
2023/12/08 02:18:18;;;;;;;9.80;7.15;;;;;;;-5.98;100.00;97895.06;1224804;75;2915197;-63
2023/12/08 02:20:53;;;;;;;12.75;8.75;;;;;;;-6.12;100.00;97889.53;1224216;75;2929350;-65
2023/12/08 02:23:26;;;;;;;14.40;10.25;;;;;;;-6.28;100.00;97890.41;1224603;75;2915429;-64
2023/12/08 02:26:02;;;;;;;16.45;11.00;;;;;;;-6.13;100.00;97888.75;1224962;75;2924405;-64
2023/12/08 02:28:34;;;;;;;15.80;10.30;;;;;;;-6.13;100.00;97879.97;1224927;75;2926278;-63
2023/12/08 02:31:10;;;;;;;13.10;9.55;;;;;;;-6.04;100.00;97881.28;1224759;75;2918565;-62
2023/12/08 02:33:46;;;;;;;10.75;8.60;;;;;;;-6.00;100.00;97878.66;1224887;75;2926906;-66
2023/12/08 02:36:20;;;;;;;10.30;7.95;;;;;;;-5.99;100.00;97869.50;1225694;75;2913612;-65
2023/12/08 02:38:56;;;;;;;9.10;7.05;;;;;;;-6.02;100.00;97871.00;1225138;75;2929637;-65
2023/12/08 02:41:32;;;;;;;10.05;7.90;;;;;;;-6.05;100.00;97868.31;1225889;75;2913608;-63
2023/12/08 02:44:05;;;;;;;10.00;6.45;;;;;;;-6.06;100.00;97866.75;1225195;75;2915608;-65
2023/12/08 02:46:37;;;;;;;9.45;7.30;;;;;;;-6.06;100.00;97861.41;1224789;75;2916280;-65
2023/12/08 02:49:10;;;;;;;9.05;6.80;;;;;;;-6.06;100.00;97872.88;1224454;75;2920553;-63
2023/12/08 02:51:43;;;;;;;8.60;7.30;;;;;;;-6.07;100.00;97863.31;1224714;75;2919273;-63
2023/12/08 02:54:16;;;;;;;9.10;6.65;;;;;;;-6.14;100.00;97867.78;1224958;75;2912449;-64
2023/12/08 02:56:51;;;;;;;7.90;6.25;;;;;;;-6.13;100.00;97864.78;1224664;75;2917183;-65
2023/12/08 02:59:24;;;;;;;7.95;5.45;;;;;;;-6.14;100.00;97860.56;1224229;75;2935797;-64
2023/12/08 03:01:57;;;;;;;8.55;6.20;;;;;;;-6.29;100.00;97856.94;1224667;75;2921690;-65
2023/12/08 03:04:30;;;;;;;8.70;6.70;;;;;;;-6.32;100.00;97854.22;1225096;75;2916547;-66
2023/12/08 03:07:03;;;;;;;8.40;6.50;;;;;;;-6.33;100.00;97847.34;1224244;75;2935927;-64
2023/12/08 03:09:36;;;;;;;8.60;6.30;;;;;;;-6.30;100.00;97847.41;1225332;75;2914513;-64
2023/12/08 03:12:11;;;;;;;7.85;5.75;;;;;;;-6.30;100.00;97841.28;1225152;75;2917117;-62
2023/12/08 03:14:44;;;;;;;8.25;5.90;;;;;;;-6.36;100.00;97832.84;1225256;75;2930609;-65
2023/12/08 03:17:17;;;;;;;7.75;5.80;;;;;;;-6.39;100.00;97822.94;1225208;83;2915275;-66
2023/12/08 03:19:50;;;;;;;7.75;5.80;;;;;;;-6.35;100.00;97821.09;1224609;75;2914761;-61
2023/12/08 03:22:23;;;;;;;7.30;4.70;;;;;;;-6.41;100.00;97821.75;1223257;75;2928540;-67
2023/12/08 03:24:55;;;;;;;7.80;6.10;;;;;;;-6.43;100.00;97825.53;1224880;75;2913781;-66
2023/12/08 03:27:31;;;;;;;8.05;6.10;;;;;;;-6.51;100.00;97815.91;1225044;75;2919972;-66
2023/12/08 03:30:04;;;;;;;7.80;5.65;;;;;;;-6.45;100.00;97827.78;1225611;75;2915632;-64
2023/12/08 03:32:36;;;;;;;7.15;5.40;;;;;;;-6.46;100.00;97820.91;1225160;75;2931668;-62
2023/12/08 03:35:10;;;;;;;7.60;5.20;;;;;;;-6.48;100.00;97825.84;1226064;75;2931987;-67
2023/12/08 03:37:44;;;;;;;5.35;4.55;;;;;;;-6.46;100.00;97822.81;1221406;75;2978273;-63
2023/12/08 03:40:17;;;;;;;5.80;4.05;;;;;;;-6.50;100.00;97811.34;1224570;75;2924862;-62
2023/12/08 03:42:52;;;;;;;6.30;4.20;;;;;;;-6.50;100.00;97812.09;1225301;75;2917647;-62
2023/12/08 03:45:26;;;;;;;5.70;4.25;;;;;;;-6.45;100.00;97808.38;1224633;75;2921897;-66
2023/12/08 03:47:58;;;;;;;6.30;4.75;;;;;;;-6.52;100.00;97802.94;1224751;75;2919825;-64
2023/12/08 03:50:31;;;;;;;5.10;4.25;;;;;;;-6.60;100.00;97804.72;1225212;75;2920609;-61
2023/12/08 03:53:04;;;;;;;6.45;4.95;;;;;;;-6.59;100.00;97808.16;1224907;75;2922618;-64
2023/12/08 03:55:37;;;;;;;8.00;5.55;;;;;;;-6.80;100.00;97808.63;1225404;75;2921527;-66
2023/12/08 03:58:12;;;;;;;9.40;6.65;;;;;;;-6.81;100.00;97812.38;1224955;75;2921221;-65
2023/12/08 04:00:45;;;;;;;10.85;5.75;;;;;;;-6.69;100.00;97806.88;1225412;75;2921063;-64
2023/12/08 04:03:18;;;;;;;8.00;5.65;;;;;;;-6.56;100.00;97802.91;1224944;75;2932494;-66
2023/12/08 04:05:51;;;;;;;6.45;4.80;;;;;;;-6.61;100.00;97813.84;1225374;75;2915893;-63
2023/12/08 04:08:24;;;;;;;6.65;4.85;;;;;;;-6.63;100.00;97824.09;1225015;75;2926447;-63
2023/12/08 04:10:56;;;;;;;5.45;4.50;;;;;;;-6.76;100.00;97822.72;1223919;75;2920702;-63
2023/12/08 04:13:32;;;;;;;5.60;3.95;;;;;;;-6.68;100.00;97805.75;1225523;75;2919760;-62
2023/12/08 04:16:05;;;;;;;7.30;4.45;;;;;;;-6.72;100.00;97804.94;1222868;75;3075043;-65
2023/12/08 04:18:39;;;;;;;6.05;4.40;;;;;;;-6.72;100.00;97805.69;1225411;75;2913177;-62
2023/12/08 04:21:12;;;;;;;8.50;5.85;;;;;;;-7.03;100.00;97803.31;1224840;75;2924036;-65
2023/12/08 04:23:45;;;;;;;8.35;6.35;;;;;;;-6.87;100.00;97810.03;1225919;75;2916461;-65
2023/12/08 04:26:24;;;;;;;6.80;5.25;;;;;;;-6.81;100.00;97810.50;1225444;75;2917951;-67
2023/12/08 04:29:00;;;;;;;5.90;4.45;;;;;;;-6.80;100.00;97809.38;1225186;75;2896878;-63
2023/12/08 04:31:33;;;;;;;6.15;4.30;;;;;;;-6.85;100.00;97801.69;1224715;75;2923888;-66
2023/12/08 04:34:05;;;;;;;5.95;4.20;;;;;;;-6.90;100.00;97794.78;1224949;75;2918561;-65
2023/12/08 04:36:38;;;;;;;7.50;5.55;;;;;;;-7.06;100.00;97807.44;1225575;75;2922363;-67
2023/12/08 04:39:11;;;;;;;8.95;6.40;;;;;;;-7.19;100.00;97814.03;1224778;75;2920225;-64
2023/12/08 04:41:44;;;;;;;10.05;7.05;;;;;;;-7.09;100.00;97808.91;1225651;75;2919883;-63
2023/12/08 04:44:19;;;;;;;7.85;6.00;;;;;;;-6.98;100.00;97803.00;1225504;75;2930708;-65
2023/12/08 04:46:52;;;;;;;7.95;6.20;;;;;;;-6.99;100.00;97799.56;1224902;75;2917186;-64
2023/12/08 04:49:25;;;;;;;7.20;5.65;;;;;;;-6.93;100.00;97802.69;1225214;75;2917462;-65
2023/12/08 04:51:58;;;;;;;6.45;4.80;;;;;;;-6.93;100.00;97808.00;1225506;75;2925143;-64
2023/12/08 04:54:31;;;;;;;9.55;6.05;;;;;;;-7.21;100.00;97803.00;1225201;75;2917559;-64
2023/12/08 04:57:04;;;;;;;10.20;7.35;;;;;;;-7.24;100.00;97793.06;1225155;75;2924886;-67
2023/12/08 04:59:41;;;;;;;13.05;9.25;;;;;;;-7.31;100.00;97807.00;1225257;75;2923820;-65
2023/12/08 05:02:14;;;;;;;14.05;9.90;;;;;;;-7.38;100.00;97799.69;1224306;75;2924538;-63
2023/12/08 05:04:46;;;;;;;13.85;10.50;;;;;;;-7.40;100.00;97799.25;1225702;75;2917674;-61
2023/12/08 05:07:19;;;;;;;14.40;11.50;;;;;;;-7.16;100.00;97800.81;1225256;75;2918925;-65
2023/12/08 05:09:52;;;;;;;11.55;9.30;;;;;;;-7.21;100.00;97803.00;1224095;75;2928084;-65
2023/12/08 05:12:25;;;;;;;13.40;10.40;;;;;;;-7.30;100.00;97806.66;1225410;75;2931021;-63
2023/12/08 05:15:00;;;;;;;14.50;10.15;;;;;;;-7.29;100.00;97797.56;1223412;75;2929107;-65
2023/12/08 05:17:33;;;;;;;15.55;11.80;;;;;;;-7.32;100.00;97797.50;1224389;75;2928557;-65
2023/12/08 05:20:07;;;;;;;13.90;10.35;;;;;;;-7.17;100.00;97799.25;1225202;75;2923899;-66
2023/12/08 05:22:39;;;;;;;15.25;10.05;;;;;;;-7.39;100.00;97806.09;1224960;75;2924931;-64
2023/12/08 05:25:12;;;;;;;15.10;10.60;;;;;;;-7.43;100.00;97818.59;1224851;75;2924794;-62
2023/12/08 05:27:46;;;;;;;13.90;10.05;;;;;;;-7.45;100.00;97807.53;1223983;75;2926193;-67
2023/12/08 05:30:21;;;;;;;13.90;9.90;;;;;;;-7.33;100.00;97807.38;1224174;75;2918153;-63
2023/12/08 05:32:54;;;;;;;12.35;8.70;;;;;;;-7.29;100.00;97805.56;1224041;75;2936794;-65
2023/12/08 05:35:27;;;;;;;13.10;9.15;;;;;;;-7.40;100.00;97796.59;1224812;75;2920485;-65
2023/12/08 05:37:59;;;;;;;14.05;9.45;;;;;;;-7.39;100.00;97800.78;1225506;67;2929194;-64
2023/12/08 05:40:32;;;;;;;10.75;8.10;;;;;;;-7.33;100.00;97801.28;1224483;75;2921377;-65
2023/12/08 05:43:06;;;;;;;10.20;7.60;;;;;;;-7.34;100.00;97789.84;1224272;75;2929232;-62
2023/12/08 05:45:42;;;;;;;9.85;6.75;;;;;;;-7.28;100.00;97795.66;1225191;75;2924809;-62
2023/12/08 05:48:14;;;;;;;8.65;6.30;;;;;;;-7.48;100.00;97797.56;1224626;75;2920758;-64
2023/12/08 05:50:47;;;;;;;8.10;6.45;;;;;;;-7.44;100.00;97793.09;1225368;75;2923237;-67
2023/12/08 05:53:20;;;;;;;8.25;6.10;;;;;;;-7.33;100.00;97790.66;1223624;75;2937460;-65
2023/12/08 05:55:53;;;;;;;8.40;6.10;;;;;;;-7.37;100.00;97784.50;1224169;75;2921507;-63
2023/12/08 05:58:26;;;;;;;19.65;12.75;;;;;;;-7.56;100.00;97790.59;1225465;75;2918954;-63
2023/12/08 06:01:01;;;;;;;22.65;15.35;;;;;;;-7.55;100.00;97782.28;1224376;75;2918656;-64
2023/12/08 06:03:34;;;;;;;21.40;13.05;;;;;;;-7.45;100.00;97785.50;1224334;75;2932160;-63
2023/12/08 06:06:07;;;;;;;16.90;11.35;;;;;;;-7.45;100.00;97782.84;1223210;75;2937990;-66
2023/12/08 06:08:40;;;;;;;18.80;12.40;;;;;;;-7.67;100.00;97782.44;1224853;75;2917222;-62
2023/12/08 06:11:13;;;;;;;14.90;9.50;;;;;;;-7.56;100.00;97767.44;1224966;75;2919914;-65
2023/12/08 06:13:45;;;;;;;19.40;14.50;;;;;;;-7.58;100.00;97766.25;1225762;75;2912625;-65
2023/12/08 06:16:21;;;;;;;21.40;14.30;;;;;;;-7.49;100.00;97764.16;1224555;75;2917618;-66
2023/12/08 06:18:54;;;;;;;18.30;12.20;;;;;;;-7.44;100.00;97763.84;1221174;75;2928232;-65
2023/12/08 06:21:27;;;;;;;17.65;11.20;;;;;;;-7.43;100.00;97760.09;1224329;75;2917396;-66
2023/12/08 06:24:01;;;;;;;18.65;12.80;;;;;;;-7.39;100.00;97758.25;1221678;75;2922119;-66
2023/12/08 06:26:34;;;;;;;18.35;12.65;;;;;;;-7.39;100.00;97762.78;1219727;75;3068428;-64
2023/12/08 06:29:08;;;;;;;20.35;12.95;;;;;;;-7.46;100.00;97763.44;1222828;75;2931007;-63
2023/12/08 06:31:46;;;;;;;14.25;10.85;;;;;;;-7.46;100.00;97760.00;1224506;75;2922969;-64
2023/12/08 06:34:19;;;;;;;15.20;10.50;;;;;;;-7.56;100.00;97758.72;1224464;75;2918559;-66
2023/12/08 06:36:52;;;;;;;12.65;8.85;;;;;;;-7.44;100.00;97761.19;1224239;75;2916486;-64
2023/12/08 06:39:25;;;;;;;10.70;7.85;;;;;;;-7.32;100.00;97766.34;1221163;75;2960226;-65
2023/12/08 06:41:58;;;;;;;9.05;7.85;;;;;;;-7.25;100.00;97767.59;1224393;75;2954070;-65
2023/12/08 06:44:31;;;;;;;11.15;7.05;;;;;;;-7.19;100.00;97766.16;1222527;75;2924334;-65
2023/12/08 06:47:08;;;;;;;11.05;7.90;;;;;;;-7.22;100.00;97770.31;1223372;75;2957650;-64
2023/12/08 06:49:40;;;;;;;10.80;7.35;;;;;;;-6.88;100.00;97776.56;1224804;75;2918606;-65
2023/12/08 06:52:13;;;;;;;10.25;6.45;;;;;;;-6.83;100.00;97778.16;1223406;75;2931281;-63
2023/12/08 06:54:46;;;;;;;8.20;6.65;;;;;;;-6.65;100.00;97779.19;1224264;75;2901372;-62
2023/12/08 06:57:19;;;;;;;5.65;4.75;;;;;;;-6.63;100.00;97778.84;1223801;75;2919197;-66
2023/12/08 06:59:52;;;;;;;5.95;5.35;;;;;;;-6.58;100.00;97778.53;1224044;75;2922173;-65
2023/12/08 07:02:27;;;;;;;5.45;4.60;;;;;;;-6.33;100.00;97792.16;1224344;75;2918894;-66
2023/12/08 07:05:00;;;;;;;6.45;4.95;;;;;;;-6.16;100.00;97798.88;1224681;75;2945327;-65
2023/12/08 07:07:33;;;;;;;8.10;6.50;;;;;;;-6.13;100.00;97806.16;1224871;75;2930466;-67
2023/12/08 07:10:07;;;;;;;11.45;7.00;;;;;;;-6.15;100.00;97804.97;1221060;75;3109468;-66
2023/12/08 07:12:40;;;;;;;17.30;12.80;;;;;;;-6.15;100.00;97824.41;1223842;75;2941185;-65
2023/12/08 07:15:14;;;;;;;16.00;11.30;;;;;;;-5.77;100.00;97825.22;1222968;75;2919648;-64
2023/12/08 07:17:49;;;;;;;12.90;9.75;;;;;;;-5.86;100.00;97828.16;1223524;75;2916739;-65
2023/12/08 07:20:23;;;;;;;17.00;13.65;;;;;;;-6.15;100.00;97827.06;1223698;75;2886538;-63
2023/12/08 07:22:55;;;;;;;16.75;12.45;;;;;;;-6.30;100.00;97822.66;1217480;75;2952382;-68
2023/12/08 07:25:28;;;;;;;20.95;13.20;;;;;;;-6.73;100.00;97819.38;1222460;75;2930530;-66
2023/12/08 07:28:01;;;;;;;16.60;12.60;;;;;;;-6.52;100.00;97816.25;1224282;75;2918245;-64
2023/12/08 07:30:34;;;;;;;16.05;13.05;;;;;;;-6.11;100.00;97805.78;1223902;67;2936739;-63
2023/12/08 07:33:10;;;;;;;15.95;14.15;;;;;;;-6.16;100.00;97793.53;1223558;75;2900182;-68
2023/12/08 07:35:43;;;;;;;17.55;14.05;;;;;;;-5.49;100.00;97794.66;1224411;75;2923430;-64
2023/12/08 07:38:16;;;;;;;14.10;11.75;;;;;;;-5.20;100.00;97782.38;1224246;75;2922189;-64
2023/12/08 07:40:48;;;;;;;13.30;11.05;;;;;;;-4.71;100.00;97768.66;1223753;75;2924551;-64
2023/12/08 07:43:21;;;;;;;13.15;9.90;;;;;;;-4.37;100.00;97770.41;1224534;75;2895884;-64
2023/12/08 07:45:54;;;;;;;15.40;11.45;;;;;;;-4.43;100.00;97766.53;1223690;75;2926412;-62
2023/12/08 07:48:30;;;;;;;15.35;10.40;;;;;;;-4.15;100.00;97769.38;1224787;75;2923743;-67
2023/12/08 07:51:03;;;;;;;13.20;8.80;;;;;;;-4.10;100.00;97769.00;1224591;75;2917780;-64
2023/12/08 07:53:35;;;;;;;12.35;8.70;;;;;;;-4.03;100.00;97759.50;1222047;75;2918860;-63
2023/12/08 07:56:09;;;;;;;10.55;8.15;;;;;;;-3.98;100.00;97757.22;1224270;75;2918605;-64
2023/12/08 07:58:42;;;;;;;9.60;7.55;;;;;;;-3.95;100.00;97748.44;1224532;75;2923805;-65
2023/12/08 08:01:15;;;;;;;9.10;6.95;;;;;;;-3.87;100.00;97751.94;1224790;75;2918916;-63
2023/12/08 08:03:50;;;;;;;8.50;6.65;;;;;;;-3.77;100.00;97748.50;1224211;75;2926670;-66
2023/12/08 08:06:24;;;;;;;7.55;6.05;;;;;;;-3.92;100.00;97746.91;1224149;75;2930380;-68
2023/12/08 08:08:57;;;;;;;12.40;9.55;;;;;;;-4.12;100.00;97749.91;1225260;75;2913835;-65
2023/12/08 08:11:30;;;;;;;13.30;9.80;;;;;;;-3.75;100.00;97756.94;1224665;75;2927851;-65
2023/12/08 08:14:03;;;;;;;11.70;9.70;;;;;;;-3.68;100.00;97759.63;1224065;75;2923365;-65
2023/12/08 08:16:36;;;;;;;17.70;14.00;;;;;;;-4.00;100.00;97759.50;1224743;75;2925547;-64
2023/12/08 08:19:12;;;;;;;21.95;14.80;;;;;;;-4.43;100.00;97759.28;1224826;75;2926070;-64
2023/12/08 08:21:45;;;;;;;17.25;13.20;;;;;;;-4.62;100.00;97759.56;1222623;75;2922114;-63
2023/12/08 08:24:18;;;;;;;16.95;13.05;;;;;;;-4.69;100.00;97770.19;1223810;75;2938689;-65
2023/12/08 08:26:51;;;;;;;19.65;13.95;;;;;;;-4.52;100.00;97782.91;1223869;75;2919629;-65
2023/12/08 08:29:24;;;;;;;17.40;13.45;;;;;;;-4.09;100.00;97767.09;1222740;75;2934482;-64
2023/12/08 08:31:57;;;;;;;17.45;13.70;;;;;;;-4.23;100.00;97773.16;1223083;75;2917761;-65
2023/12/08 08:34:32;;;;;;;20.50;15.15;;;;;;;-4.49;100.00;97774.16;1223181;75;2924190;-66
2023/12/08 08:37:05;;;;;;;21.95;18.00;;;;;;;-4.36;100.00;97775.34;1223517;75;2923829;-66
2023/12/08 08:39:38;;;;;;;20.55;16.15;;;;;;;-4.28;100.00;97773.50;1223859;75;2919162;-65
2023/12/08 08:42:11;;;;;;;18.95;14.25;;;;;;;-4.22;100.00;97772.00;1223966;75;2921143;-68
2023/12/08 08:44:44;;;;;;;16.35;13.00;;;;;;;-4.13;100.00;97777.03;1224050;75;2927227;-64
2023/12/08 08:47:19;;;;;;;19.35;14.25;;;;;;;-4.26;100.00;97778.47;1224783;75;2916512;-61
2023/12/08 08:49:54;;;;;;;21.20;16.80;;;;;;;-4.13;100.00;97782.38;1224886;75;2920636;-66
2023/12/08 08:52:27;;;;;;;22.30;16.70;;;;;;;-3.88;100.00;97774.44;1223929;75;2929079;-64
2023/12/08 08:55:00;;;;;;;17.60;14.45;;;;;;;-3.70;100.00;97775.28;1225197;75;2915383;-64
2023/12/08 08:57:33;;;;;;;18.85;15.25;;;;;;;-3.22;100.00;97768.91;1224087;75;2932068;-68
2023/12/08 09:00:10;;;;;;;17.75;14.05;;;;;;;-3.41;100.00;97769.25;1225709;75;2918150;-65
2023/12/08 09:02:43;;;;;;;29.40;21.40;;;;;;;-3.59;100.00;97780.66;1223922;75;2929181;-63
2023/12/08 09:05:19;;;;;;;19.35;15.05;;;;;;;-3.23;100.00;97786.09;1224898;75;2916179;-64
2023/12/08 09:07:51;;;;;;;21.45;15.60;;;;;;;-3.34;100.00;97791.44;1223315;75;2922819;-68
2023/12/08 09:10:24;;;;;;;18.75;15.00;;;;;;;-2.95;100.00;97789.97;1224061;75;2921384;-61
2023/12/08 09:12:57;;;;;;;20.35;14.85;;;;;;;-3.00;100.00;97793.78;1224159;75;2920720;-64
2023/12/08 09:15:30;;;;;;;20.35;15.25;;;;;;;-2.86;100.00;97793.00;1224654;75;2920066;-64
2023/12/08 09:18:03;;;;;;;17.70;14.00;;;;;;;-2.38;100.00;97781.88;1224019;75;2939738;-66
2023/12/08 09:20:39;;;;;;;14.90;12.75;;;;;;;-1.29;100.00;97771.06;1224390;75;2917432;-65
2023/12/08 09:23:12;;;;;;;15.65;11.65;;;;;;;-1.14;100.00;97771.75;1223951;75;2932494;-65
2023/12/08 09:25:45;;;;;;;13.25;10.15;;;;;;;-0.76;98.81;97763.78;1223265;75;2996122;-63
2023/12/08 09:28:19;;;;;;;15.20;12.25;;;;;;;-1.04;96.57;97766.69;1225141;75;2918816;-62
2023/12/08 09:30:53;;;;;;;12.20;10.45;;;;;;;-0.10;93.58;97757.38;1224034;75;2935283;-66
2023/12/08 09:33:26;;;;;;;12.00;9.80;;;;;;;0.32;88.16;97760.72;1223450;75;2919464;-66
2023/12/08 09:36:01;;;;;;;12.25;9.90;;;;;;;0.38;86.49;97756.41;1224296;75;2928228;-66
2023/12/08 09:38:34;;;;;;;17.10;12.75;;;;;;;-0.73;90.16;97749.53;1224591;75;2920217;-63
2023/12/08 09:41:09;;;;;;;16.05;12.25;;;;;;;-0.54;93.72;97758.97;1224803;75;2927893;-64
2023/12/08 09:43:50;;;;;;;15.10;12.25;;;;;;;-0.46;91.96;97755.06;1223064;75;2919591;-63
2023/12/08 09:46:23;;;;;;;19.05;13.60;;;;;;;-0.97;92.13;97753.22;1222549;75;3040145;-64
2023/12/08 09:49:03;;;;;;;16.90;12.35;;;;;;;-0.23;90.68;97742.91;1222891;75;2972424;-63
2023/12/08 09:51:39;;;;;;;16.65;13.00;;;;;;;-0.38;90.26;97739.63;1222777;75;2923224;-64
2023/12/08 09:54:13;;;;;;;17.35;13.20;;;;;;;-0.36;92.18;97745.38;1222947;75;2961491;-65
2023/12/08 09:56:47;;;;;;;19.40;13.20;;;;;;;-0.07;90.15;97740.44;1207486;75;4218256;-64
2023/12/08 09:59:23;;;;;;;17.30;12.60;;;;;;;-0.24;90.48;97722.53;1223885;83;2936048;-64
2023/12/08 10:01:56;;;;;;;14.15;10.60;;;;;;;0.36;87.46;97721.06;1222653;75;2914039;-65
2023/12/08 10:04:29;;;;;;;21.10;13.80;;;;;;;0.31;85.59;97702.66;1224324;75;2913918;-65
2023/12/08 10:07:06;;;;;;;16.15;12.55;;;;;;;1.02;83.70;97691.97;1223894;75;2920165;-65
2023/12/08 10:09:41;;;;;;;14.75;11.75;;;;;;;1.34;81.33;97683.31;1208478;75;4088895;-64
2023/12/08 10:12:13;;;;;;;15.30;11.75;;;;;;;1.52;79.21;97677.63;1224297;75;2922827;-62
2023/12/08 10:14:57;;;;;;;13.90;10.05;;;;;;;1.67;78.31;97675.41;1225051;75;2923482;-64
2023/12/08 10:17:30;;;;;;;16.10;11.70;;;;;;;2.17;75.68;97677.09;1224148;75;2927992;-66
2023/12/08 10:20:13;;;;;;;18.85;13.85;;;;;;;0.89;82.05;97685.63;1223812;75;2952491;-63
2023/12/08 10:22:54;;;;;;;22.40;13.35;;;;;;;0.85;83.02;97685.72;1224643;75;2921216;-67
2023/12/08 10:25:29;;;;;;;18.95;13.45;;;;;;;0.07;84.38;97684.91;1222807;75;2926047;-63
2023/12/08 10:28:02;;;;;;;22.70;14.55;;;;;;;0.78;84.20;97689.28;1221733;75;2924074;-63
2023/12/08 10:30:35;;;;;;;22.45;14.25;;;;;;;0.71;83.46;97686.69;1224364;75;2917960;-64
2023/12/08 10:33:08;;;;;;;30.40;18.85;;;;;;;-0.39;91.18;97680.84;1224043;75;2910924;-64
2023/12/08 10:35:43;;;;;;;25.95;17.80;;;;;;;0.94;87.17;97682.47;1224767;75;2923143;-67
2023/12/08 10:38:19;;;;;;;27.00;17.45;;;;;;;-0.32;92.35;97684.22;1224675;75;2920872;-66
2023/12/08 10:40:53;;;;;;;26.65;17.00;;;;;;;-0.28;94.86;97682.25;1224384;75;2920004;-66
2023/12/08 10:43:26;;;;;;;20.95;15.45;;;;;;;0.97;87.95;97676.28;1224261;75;2905172;-63
2023/12/08 10:45:59;;;;;;;18.25;13.30;;;;;;;1.17;85.59;97676.31;1224804;75;2915349;-63
2023/12/08 10:48:32;;;;;;;17.95;13.30;;;;;;;1.43;81.87;97669.31;1224153;75;2928776;-62
2023/12/08 10:51:06;;;;;;;18.10;13.60;;;;;;;1.73;80.86;97676.44;1223188;75;2911590;-65
2023/12/08 10:53:42;;;;;;;20.95;14.10;;;;;;;1.56;81.13;97672.91;1224427;75;2921843;-63
2023/12/08 10:56:19;;;;;;;18.90;13.50;;;;;;;2.60;78.45;97675.38;1224788;75;2920928;-64
2023/12/08 10:59:04;;;;;;;16.85;11.90;;;;;;;2.91;76.13;97665.75;1225360;75;2921030;-64
2023/12/08 11:01:37;;;;;;;18.05;13.00;;;;;;;2.61;78.10;97658.75;1225402;75;2927763;-64
2023/12/08 11:04:13;;;;;;;19.75;13.80;;;;;;;2.81;77.93;97652.47;1225147;75;2919702;-65
2023/12/08 11:07:02;;;;;;;18.50;13.40;;;;;;;3.71;75.32;97643.56;1224945;75;2914133;-65
2023/12/08 11:09:42;;;;;;;20.60;12.45;;;;;;;3.81;73.54;97645.22;1224768;75;2919803;-65
2023/12/08 11:12:16;;;;;;;15.60;11.95;;;;;;;3.78;72.66;97637.97;1223540;75;2923817;-67
2023/12/08 11:14:58;;;;;;;17.20;12.60;;;;;;;4.86;68.97;97635.47;1224343;75;2926206;-65
2023/12/08 11:17:37;;;;;;;15.45;11.25;;;;;;;6.04;66.46;97627.13;1222082;75;2915559;-64
2023/12/08 11:20:13;;;;;;;13.35;9.50;;;;;;;7.81;61.05;97616.78;1222787;75;2974401;-63
2023/12/08 11:22:48;;;;;;;14.20;10.00;;;;;;;6.90;60.48;97616.38;1223536;75;2923044;-63
2023/12/08 11:25:32;;;;;;;11.40;9.15;;;;;;;7.90;58.61;97609.34;1223091;75;2923077;-63
2023/12/08 11:28:15;;;;;;;16.35;10.90;;;;;;;6.81;61.15;97611.69;1223366;75;2932279;-63
2023/12/08 11:30:58;;;;;;;16.65;11.35;;;;;;;5.38;61.81;97614.31;1223477;75;2888961;-66